Time;durP1;ratioP1;P1;durP2;ratioP2;P2;SDS_P1;SDS_P2;PMS_P1;PMS_P2;Temp;Humidity;BMP_temperature;BMP_pressure;BME280_temperature;BME280_humidity;BME280_pressure;Samples;Min_cycle;Max_cycle;Signal;HPM_P1;HPM_P2
2022/03/06 00:01:01;;;;;;;3.60;2.80;;;;;;;16.02;32.78;93393.09;4922115;28;20035;-89
2022/03/06 00:03:26;;;;;;;3.83;2.50;;;;;;;16.01;32.86;93388.91;4921376;28;20042;-89
2022/03/06 00:05:52;;;;;;;3.60;2.30;;;;;;;15.99;32.74;93388.66;4953514;28;20042;-88
2022/03/06 00:08:17;;;;;;;3.38;2.47;;;;;;;16.00;32.68;93397.59;4952775;28;20026;-88
2022/03/06 00:10:43;;;;;;;2.90;2.08;;;;;;;15.96;32.61;93395.09;4921776;29;20502;-89
2022/03/06 00:13:08;;;;;;;3.00;2.38;;;;;;;15.97;32.73;93393.13;4902305;29;20055;-89
2022/03/06 00:15:33;;;;;;;2.90;2.25;;;;;;;15.97;32.65;93387.66;4918490;29;20043;-89
2022/03/06 00:17:59;;;;;;;3.30;2.20;;;;;;;16.00;32.79;93383.94;4917334;29;20035;-90
2022/03/06 00:20:24;;;;;;;4.03;2.42;;;;;;;15.95;32.55;93385.44;4917558;29;20071;-89
2022/03/06 00:22:50;;;;;;;2.63;1.98;;;;;;;15.95;32.63;93387.41;4916650;29;20398;-89
2022/03/06 00:25:15;;;;;;;3.67;2.15;;;;;;;15.96;32.92;93386.91;4899046;29;20080;-89
2022/03/06 00:27:40;;;;;;;3.28;2.15;;;;;;;15.97;32.55;93385.69;4914133;29;20039;-89
2022/03/06 00:30:06;;;;;;;3.60;2.35;;;;;;;16.01;32.75;93385.44;4898865;29;20048;-89
2022/03/06 00:32:32;;;;;;;4.07;2.35;;;;;;;15.96;32.62;93384.19;4898668;29;20122;-89
2022/03/06 00:34:57;;;;;;;3.65;2.28;;;;;;;15.96;32.79;93383.44;4898709;29;20059;-90
2022/03/06 00:37:22;;;;;;;3.17;2.25;;;;;;;16.03;32.59;93378.22;4914647;29;20050;-88
2022/03/06 00:39:48;;;;;;;2.97;2.15;;;;;;;15.99;32.79;93377.75;4915470;29;20070;-88
2022/03/06 00:42:13;;;;;;;3.28;2.25;;;;;;;15.97;32.78;93385.69;4907158;29;20521;-89
2022/03/06 00:44:39;;;;;;;3.55;2.40;;;;;;;15.98;32.57;93380.97;4933896;29;20047;-89
2022/03/06 00:47:04;;;;;;;3.17;2.10;;;;;;;15.97;32.64;93376.75;4901933;29;20044;-88
2022/03/06 00:49:30;;;;;;;2.97;2.17;;;;;;;15.98;33.05;93379.00;4917298;29;20172;-89
2022/03/06 00:51:55;;;;;;;3.75;2.15;;;;;;;15.99;32.74;93382.47;4920711;29;20043;-88
2022/03/06 00:54:21;;;;;;;3.65;2.35;;;;;;;16.04;32.51;93373.50;4920879;29;20035;-94
2022/03/06 00:56:47;;;;;;;3.13;1.83;;;;;;;16.03;32.68;93374.75;4904704;29;20046;-89
2022/03/06 00:59:13;;;;;;;3.88;2.20;;;;;;;15.97;32.55;93382.94;4937278;29;20046;-94
2022/03/06 01:01:39;;;;;;;3.22;2.00;;;;;;;15.98;32.66;93376.25;4936633;29;20035;-88
2022/03/06 01:04:04;;;;;;;3.30;2.00;;;;;;;16.03;32.49;93375.50;4920601;29;20040;-88
2022/03/06 01:06:29;;;;;;;4.55;2.60;;;;;;;16.02;32.56;93382.19;4936508;29;20051;-89
2022/03/06 01:08:55;;;;;;;4.03;2.70;;;;;;;15.99;32.68;93377.00;4882082;28;1137848;-89
2022/03/06 01:11:20;;;;;;;4.03;2.08;;;;;;;15.97;32.98;93368.56;4927246;28;20043;-89
2022/03/06 01:13:46;;;;;;;3.13;2.30;;;;;;;16.00;32.53;93376.50;4941758;28;20050;-91
2022/03/06 01:16:11;;;;;;;2.95;2.20;;;;;;;15.98;32.73;93380.97;4948114;29;20063;-89
2022/03/06 01:18:37;;;;;;;3.42;2.40;;;;;;;16.02;32.52;93370.56;4921854;29;20047;-88
2022/03/06 01:21:02;;;;;;;3.22;2.15;;;;;;;15.97;33.00;93374.78;4922251;29;20035;-93
2022/03/06 01:23:28;;;;;;;3.17;2.10;;;;;;;15.96;32.62;93384.19;4906232;29;20510;-89
2022/03/06 01:25:54;;;;;;;3.42;2.03;;;;;;;15.96;32.94;93380.72;4921897;29;20406;-89
2022/03/06 01:28:19;;;;;;;3.28;2.17;;;;;;;15.99;32.66;93377.75;4904970;29;20045;-88
2022/03/06 01:30:44;;;;;;;3.60;2.20;;;;;;;16.02;32.79;93371.28;4921063;29;20050;-94
2022/03/06 01:33:10;;;;;;;3.17;2.63;;;;;;;15.97;32.74;93368.56;4904810;29;20454;-88
2022/03/06 01:35:35;;;;;;;2.97;1.73;;;;;;;15.98;32.52;93367.34;4905773;29;20442;-89
2022/03/06 01:38:00;;;;;;;2.65;1.95;;;;;;;15.95;32.93;93369.06;4905471;29;20043;-89
2022/03/06 01:40:26;;;;;;;3.13;2.25;;;;;;;15.96;32.55;93364.38;4921719;29;20035;-89
2022/03/06 01:42:52;;;;;;;3.15;2.20;;;;;;;15.96;32.48;93364.38;4952163;28;20038;-89
2022/03/06 01:45:19;;;;;;;3.40;2.28;;;;;;;16.01;32.52;93360.91;4923577;28;20280;-88
2022/03/06 01:47:48;;;;;;;4.25;2.25;;;;;;;15.95;33.16;93355.44;4930564;28;20039;-88
2022/03/06 01:50:15;;;;;;;3.00;2.10;;;;;;;15.96;32.66;93361.63;4940030;28;20085;-88
2022/03/06 01:52:41;;;;;;;3.03;2.05;;;;;;;15.96;32.63;93353.47;4939432;28;20059;-89
2022/03/06 01:55:07;;;;;;;3.08;2.13;;;;;;;15.96;32.55;93350.72;4923410;28;20446;-89
2022/03/06 01:57:32;;;;;;;3.13;1.88;;;;;;;15.98;32.60;93350.97;4940002;28;20038;-89
2022/03/06 01:59:59;;;;;;;3.15;2.30;;;;;;;15.95;32.59;93347.25;4939631;28;20156;-88
2022/03/06 02:02:25;;;;;;;4.15;2.10;;;;;;;15.99;32.45;93347.75;4922750;28;20043;-89
2022/03/06 02:04:50;;;;;;;3.13;2.22;;;;;;;15.97;32.74;93341.31;4941652;28;20425;-88
2022/03/06 02:07:16;;;;;;;3.92;2.38;;;;;;;15.96;32.52;93356.19;4925522;28;20042;-89
2022/03/06 02:09:41;;;;;;;4.03;2.33;;;;;;;15.94;32.60;93350.47;4932899;29;20491;-89
2022/03/06 02:12:22;;;;;;;3.20;1.77;;;;;;;15.95;32.80;93352.72;4907567;29;20435;-89
2022/03/06 02:14:48;;;;;;;3.90;2.50;;;;;;;15.98;32.66;93353.72;4938566;29;20049;-89
2022/03/06 02:17:14;;;;;;;3.35;2.25;;;;;;;15.95;32.41;93351.97;4893723;29;20555;-91
2022/03/06 02:19:52;;;;;;;3.38;2.30;;;;;;;15.94;32.74;93347.75;4917536;29;20032;-88
2022/03/06 02:22:21;;;;;;;4.28;2.72;;;;;;;15.93;32.76;93349.00;4933206;29;20130;-89
2022/03/06 02:24:46;;;;;;;3.30;2.00;;;;;;;15.96;32.50;93337.09;4902115;29;20046;-89
2022/03/06 02:27:11;;;;;;;2.85;2.20;;;;;;;15.94;32.68;93350.47;4936416;29;20044;-89
2022/03/06 02:29:41;;;;;;;2.80;1.90;;;;;;;15.93;32.57;93343.53;4921042;29;20054;-89
2022/03/06 02:32:10;;;;;;;3.55;2.35;;;;;;;15.92;32.81;93339.31;4921269;29;20039;-89
2022/03/06 02:34:40;;;;;;;3.92;2.60;;;;;;;15.94;32.49;93334.88;4922331;29;20085;-89
2022/03/06 02:37:06;;;;;;;2.90;1.92;;;;;;;15.92;32.83;93337.34;4922036;29;20537;-89
2022/03/06 02:39:32;;;;;;;4.55;2.28;;;;;;;15.90;32.68;93342.53;4922866;29;20059;-92
2022/03/06 02:41:58;;;;;;;2.53;2.08;;;;;;;15.93;32.63;93343.53;4912657;29;20044;-88
2022/03/06 02:44:24;;;;;;;3.78;2.53;;;;;;;15.93;32.75;93338.09;4917032;29;20122;-88
2022/03/06 02:46:50;;;;;;;3.17;2.20;;;;;;;15.95;32.62;93344.53;4915971;29;20032;-89
2022/03/06 02:49:17;;;;;;;2.20;1.70;;;;;;;15.96;32.43;93342.56;4901910;29;20043;-91
2022/03/06 02:51:44;;;;;;;2.85;1.95;;;;;;;16.01;32.24;93342.56;4885371;29;20035;-89
2022/03/06 02:54:10;;;;;;;3.03;2.20;;;;;;;15.95;32.38;93338.34;4900631;29;20067;-88
2022/03/06 02:56:36;;;;;;;2.38;1.67;;;;;;;15.93;32.42;93346.28;4901879;29;20062;-94
2022/03/06 02:59:04;;;;;;;2.80;2.10;;;;;;;15.97;32.53;93342.06;4896246;29;20324;-89
2022/03/06 03:01:30;;;;;;;2.58;2.03;;;;;;;15.97;32.41;93350.25;4884236;29;20142;-89
2022/03/06 03:03:55;;;;;;;3.75;2.08;;;;;;;15.93;32.62;93343.53;4886556;29;20040;-89
2022/03/06 03:06:20;;;;;;;2.95;1.95;;;;;;;15.97;32.74;93344.03;4885862;29;20107;-89
2022/03/06 03:08:46;;;;;;;2.75;2.05;;;;;;;15.92;32.64;93353.69;4887459;29;20395;-89
2022/03/06 03:11:12;;;;;;;4.10;1.95;;;;;;;15.92;32.81;93334.63;4921468;29;20031;-90
2022/03/06 03:13:37;;;;;;;3.35;2.03;;;;;;;15.94;32.47;93351.22;4936312;29;20202;-89
2022/03/06 03:16:03;;;;;;;2.13;1.55;;;;;;;15.91;32.57;93354.19;4916696;29;20491;-93
2022/03/06 03:18:29;;;;;;;2.95;2.03;;;;;;;15.95;32.56;93347.25;4917215;29;20040;-88
2022/03/06 03:20:55;;;;;;;2.75;1.80;;;;;;;15.91;32.63;93343.28;4901141;29;20122;-89
2022/03/06 03:23:20;;;;;;;3.85;2.15;;;;;;;15.88;32.55;93347.75;4920002;29;20090;-94
2022/03/06 03:25:46;;;;;;;3.85;2.33;;;;;;;15.91;32.40;93344.03;4903303;29;20035;-89
2022/03/06 03:28:11;;;;;;;3.20;2.10;;;;;;;15.91;32.60;93354.94;4903837;29;20092;-89
2022/03/06 03:30:37;;;;;;;3.40;2.22;;;;;;;15.92;32.50;93350.22;4903781;29;20517;-89
2022/03/06 03:33:03;;;;;;;2.95;1.83;;;;;;;15.91;32.47;93349.50;4919178;29;20668;-89
2022/03/06 03:35:29;;;;;;;2.78;2.08;;;;;;;15.90;32.75;93352.72;4919137;29;20036;-89
2022/03/06 03:37:54;;;;;;;3.55;2.00;;;;;;;15.89;32.85;93348.50;4903336;29;20054;-90
2022/03/06 03:40:19;;;;;;;3.55;2.10;;;;;;;15.92;32.81;93353.69;4899627;29;20035;-91
2022/03/06 03:42:45;;;;;;;3.10;2.00;;;;;;;15.89;32.63;93349.25;4884925;29;20682;-89
2022/03/06 03:45:10;;;;;;;2.50;1.85;;;;;;;15.89;32.56;93346.50;4900606;29;20031;-89
2022/03/06 03:47:36;;;;;;;5.38;2.70;;;;;;;15.91;32.37;93357.66;4900362;29;20036;-90
2022/03/06 03:50:01;;;;;;;3.28;2.10;;;;;;;15.89;32.51;93357.41;4884817;29;20500;-88
2022/03/06 03:52:26;;;;;;;3.20;1.95;;;;;;;15.92;32.68;93356.44;4884685;29;20028;-89
2022/03/06 03:54:52;;;;;;;2.70;1.85;;;;;;;15.89;32.48;93354.69;4899583;29;20044;-89
2022/03/06 03:57:18;;;;;;;2.63;2.00;;;;;;;15.90;32.78;93361.63;4884150;29;20036;-89
2022/03/06 03:59:43;;;;;;;3.88;2.30;;;;;;;15.92;32.69;93353.69;4898238;29;20040;-89
2022/03/06 04:02:08;;;;;;;3.35;1.90;;;;;;;15.90;32.56;93353.44;4914721;29;20562;-88
2022/03/06 04:04:34;;;;;;;3.20;2.13;;;;;;;15.88;32.35;93358.66;4915519;29;20055;-90
2022/03/06 04:06:59;;;;;;;3.00;2.13;;;;;;;15.91;32.84;93370.56;4915890;29;20044;-90
2022/03/06 04:09:25;;;;;;;2.83;1.73;;;;;;;15.96;32.28;93356.19;4899564;29;20044;-88
2022/03/06 04:11:50;;;;;;;2.65;1.88;;;;;;;15.90;32.61;93355.44;4898298;29;20047;-89
2022/03/06 04:14:16;;;;;;;3.17;2.05;;;;;;;15.91;32.44;93360.41;4900581;29;20035;-93
2022/03/06 04:16:41;;;;;;;2.67;1.95;;;;;;;15.92;32.28;93361.13;4893157;29;20032;-89
2022/03/06 04:19:07;;;;;;;3.70;2.05;;;;;;;15.90;32.50;93367.09;4896059;29;20538;-89
2022/03/06 04:21:33;;;;;;;2.83;1.95;;;;;;;15.89;32.56;93362.88;4912309;29;20044;-92
2022/03/06 04:23:58;;;;;;;2.63;1.85;;;;;;;15.89;32.61;93367.56;4895997;29;20755;-89
2022/03/06 04:26:24;;;;;;;2.85;1.92;;;;;;;15.90;32.59;93366.34;4894553;29;20076;-89
2022/03/06 04:28:49;;;;;;;2.65;2.10;;;;;;;15.85;33.03;93354.19;4880336;29;20048;-89
2022/03/06 04:31:15;;;;;;;2.55;1.80;;;;;;;15.85;32.57;93356.91;4879078;29;20088;-88
2022/03/06 04:33:40;;;;;;;2.80;2.15;;;;;;;15.83;32.64;93364.09;4879825;29;20036;-89
2022/03/06 04:36:05;;;;;;;2.35;1.90;;;;;;;15.85;32.66;93372.53;4894709;29;20075;-89
2022/03/06 04:38:31;;;;;;;4.35;2.40;;;;;;;15.87;32.36;93372.78;4895359;29;20044;-89
2022/03/06 04:40:56;;;;;;;2.65;1.77;;;;;;;15.86;32.25;93374.00;4912948;29;20498;-88
2022/03/06 04:43:24;;;;;;;2.60;1.90;;;;;;;15.85;32.81;93365.09;4937613;28;20553;-89
2022/03/06 04:45:49;;;;;;;2.58;1.98;;;;;;;15.85;32.54;93377.97;4934877;29;20050;-89
2022/03/06 04:48:15;;;;;;;3.28;2.10;;;;;;;15.86;32.39;93376.75;4922036;28;20031;-89
2022/03/06 04:50:41;;;;;;;3.10;1.98;;;;;;;15.90;32.29;93383.44;4938081;28;20039;-89
2022/03/06 04:53:06;;;;;;;3.45;1.98;;;;;;;15.89;32.42;93384.69;4937582;28;20466;-89
2022/03/06 04:55:32;;;;;;;3.58;2.33;;;;;;;15.86;32.21;93376.75;4937075;28;20098;-88
2022/03/06 04:57:57;;;;;;;2.78;1.73;;;;;;;15.89;32.55;93383.94;4953511;28;20039;-88
2022/03/06 05:00:22;;;;;;;3.72;2.10;;;;;;;15.92;32.58;93380.22;4921194;28;20128;-88
2022/03/06 05:02:48;;;;;;;2.30;1.60;;;;;;;15.88;32.48;93385.16;4920627;28;20035;-89
2022/03/06 05:05:13;;;;;;;2.72;1.95;;;;;;;15.86;32.47;93377.47;4921146;28;20035;-88
2022/03/06 05:07:39;;;;;;;3.38;2.15;;;;;;;15.86;32.70;93384.91;4937288;28;20035;-89
2022/03/06 05:10:08;;;;;;;2.38;1.85;;;;;;;15.86;32.37;93384.91;4927092;29;20043;-89
2022/03/06 05:12:34;;;;;;;3.40;1.98;;;;;;;15.89;32.45;93384.69;4920397;29;20066;-89
2022/03/06 05:14:59;;;;;;;2.67;1.85;;;;;;;15.89;32.45;93383.94;4923728;29;20050;-88
2022/03/06 05:17:24;;;;;;;2.58;1.90;;;;;;;15.88;32.35;93393.34;4919953;29;20047;-89
2022/03/06 05:19:50;;;;;;;3.53;2.58;;;;;;;15.87;32.56;93383.69;4921578;29;20547;-90
2022/03/06 05:22:15;;;;;;;3.65;2.10;;;;;;;15.88;32.69;93382.44;4919748;29;20046;-89
2022/03/06 05:24:41;;;;;;;3.10;2.22;;;;;;;15.85;32.39;93391.59;4915041;29;20698;-89
2022/03/06 05:27:06;;;;;;;2.83;2.08;;;;;;;15.84;32.46;93387.38;4883428;29;20066;-89
2022/03/06 05:29:32;;;;;;;3.50;2.25;;;;;;;15.90;32.50;93390.88;4883995;29;20036;-89
2022/03/06 05:31:57;;;;;;;2.75;1.75;;;;;;;15.86;32.50;93387.66;4883249;29;20043;-88
2022/03/06 05:34:22;;;;;;;2.72;1.98;;;;;;;15.89;32.44;93398.31;4883657;29;20103;-88
2022/03/06 05:36:48;;;;;;;3.10;2.05;;;;;;;15.86;32.26;93393.09;4916897;29;20035;-89
2022/03/06 05:39:14;;;;;;;3.03;1.85;;;;;;;15.87;32.50;93394.59;4902459;29;20384;-89
2022/03/06 05:41:39;;;;;;;3.80;2.28;;;;;;;15.85;32.61;93397.81;4918911;29;20036;-89
2022/03/06 05:44:05;;;;;;;2.85;2.00;;;;;;;15.83;32.37;93394.81;4919374;29;20055;-91
2022/03/06 05:46:30;;;;;;;3.55;2.00;;;;;;;15.84;32.44;93396.31;4923497;29;20071;-89
2022/03/06 05:48:56;;;;;;;4.55;2.67;;;;;;;15.86;32.59;93395.81;4919134;29;20043;-91
2022/03/06 05:51:21;;;;;;;2.58;1.95;;;;;;;15.87;32.42;93400.03;4905411;29;20054;-90
2022/03/06 05:53:46;;;;;;;3.55;2.15;;;;;;;15.87;32.57;93392.59;4904320;29;20086;-89
2022/03/06 05:56:12;;;;;;;2.75;2.05;;;;;;;15.93;32.36;93401.53;4903704;29;20094;-93
2022/03/06 05:58:37;;;;;;;2.45;2.00;;;;;;;15.85;32.24;93394.34;4902837;29;20495;-89
2022/03/06 06:01:03;;;;;;;3.03;2.03;;;;;;;15.93;32.37;93392.63;4919318;29;20036;-89
2022/03/06 06:03:28;;;;;;;3.08;2.20;;;;;;;15.91;32.04;93390.38;4919658;29;20065;-89
2022/03/06 06:05:53;;;;;;;3.28;2.10;;;;;;;15.91;32.09;93400.53;4918542;29;20043;-89
2022/03/06 06:08:19;;;;;;;3.10;2.17;;;;;;;15.89;32.43;93398.31;4916822;29;20052;-89
2022/03/06 06:10:45;;;;;;;2.55;1.58;;;;;;;15.93;32.39;93387.91;4933285;29;20042;-90
2022/03/06 06:13:14;;;;;;;3.65;1.90;;;;;;;15.90;32.17;93394.34;4921103;29;20051;-89
2022/03/06 06:15:43;;;;;;;2.90;1.92;;;;;;;15.88;32.39;93396.81;4937166;29;20147;-88
2022/03/06 06:18:08;;;;;;;3.40;2.35;;;;;;;15.87;32.42;93397.31;4923799;28;20054;-89
2022/03/06 06:20:36;;;;;;;3.33;2.33;;;;;;;15.86;32.45;93395.81;4956054;28;20042;-88
2022/03/06 06:23:02;;;;;;;2.95;1.90;;;;;;;15.89;32.46;93398.31;4924754;28;20043;-89
2022/03/06 06:25:27;;;;;;;2.90;1.90;;;;;;;15.87;32.59;93389.88;4939735;28;20031;-88
2022/03/06 06:27:53;;;;;;;2.90;2.17;;;;;;;15.87;32.16;93394.59;4939883;28;20065;-88
2022/03/06 06:30:19;;;;;;;2.97;1.95;;;;;;;15.84;32.52;93406.47;4939912;28;20068;-89
2022/03/06 06:32:44;;;;;;;3.15;1.92;;;;;;;15.86;32.69;93398.53;4957030;28;20061;-89
2022/03/06 06:35:10;;;;;;;2.95;2.00;;;;;;;15.88;32.36;93396.81;4956268;28;20043;-88
2022/03/06 06:37:35;;;;;;;2.90;2.00;;;;;;;15.85;32.32;93403.25;4956295;28;20034;-89
2022/03/06 06:40:01;;;;;;;2.85;1.95;;;;;;;15.92;32.31;93407.47;4941590;28;20085;-90
2022/03/06 06:42:26;;;;;;;3.03;2.15;;;;;;;15.89;32.24;93403.00;4961521;28;20046;-89
2022/03/06 06:44:51;;;;;;;2.40;1.63;;;;;;;15.89;32.38;93406.47;4937775;29;20047;-88
2022/03/06 06:47:17;;;;;;;2.83;1.98;;;;;;;15.88;32.09;93406.97;4935744;28;20042;-89
2022/03/06 06:49:42;;;;;;;2.40;2.08;;;;;;;15.88;32.43;93409.69;4921950;29;20505;-89
2022/03/06 06:52:08;;;;;;;2.97;2.13;;;;;;;15.93;32.02;93414.41;4919659;29;20035;-89
2022/03/06 06:54:33;;;;;;;3.28;2.15;;;;;;;15.95;32.12;93409.97;4920338;29;20072;-89
2022/03/06 06:56:58;;;;;;;3.55;2.33;;;;;;;15.94;31.93;93405.75;4920077;29;20047;-90
2022/03/06 06:59:24;;;;;;;3.20;2.25;;;;;;;15.97;32.18;93412.94;4927943;28;20035;-89
2022/03/06 07:01:49;;;;;;;3.10;1.95;;;;;;;15.94;32.26;93411.19;4939024;28;20038;-89
2022/03/06 07:04:15;;;;;;;2.80;2.05;;;;;;;15.94;32.54;93411.19;4938174;28;20054;-90
2022/03/06 07:06:40;;;;;;;2.72;2.00;;;;;;;15.91;32.29;93411.44;4939843;28;20037;-89
2022/03/06 07:09:06;;;;;;;2.85;1.77;;;;;;;15.96;32.02;93416.16;4938465;28;20059;-89
2022/03/06 07:11:31;;;;;;;4.28;2.25;;;;;;;15.94;32.30;93416.66;4939204;28;20486;-90
2022/03/06 07:13:56;;;;;;;2.90;2.13;;;;;;;15.92;32.43;93423.84;4938849;28;20402;-89
2022/03/06 07:16:22;;;;;;;3.10;2.20;;;;;;;15.96;32.35;93424.34;4938878;28;20054;-89
2022/03/06 07:18:49;;;;;;;3.15;1.98;;;;;;;15.94;32.43;93416.66;4933990;29;20051;-89
2022/03/06 07:21:15;;;;;;;2.33;1.92;;;;;;;15.96;32.66;93410.72;4935887;29;20402;-91
2022/03/06 07:23:40;;;;;;;2.22;1.77;;;;;;;15.98;32.25;93419.88;4919619;29;20039;-89
2022/03/06 07:26:06;;;;;;;2.53;1.90;;;;;;;15.99;32.11;93418.66;4935460;29;20048;-89
2022/03/06 07:28:31;;;;;;;3.03;2.05;;;;;;;15.94;32.12;93413.94;4919302;29;20035;-90
2022/03/06 07:30:56;;;;;;;4.22;2.80;;;;;;;16.00;32.17;93425.59;4920710;29;20040;-88
2022/03/06 07:33:22;;;;;;;2.65;2.00;;;;;;;16.02;32.20;93416.91;4919540;29;20035;-89
2022/03/06 07:35:47;;;;;;;3.75;2.10;;;;;;;16.01;32.10;93416.19;4935238;29;20043;-89
2022/03/06 07:38:13;;;;;;;2.67;1.80;;;;;;;16.02;32.07;93423.09;4918796;29;20055;-90
2022/03/06 07:40:38;;;;;;;3.85;2.50;;;;;;;16.01;31.90;93429.06;4935279;29;20505;-89
2022/03/06 07:43:03;;;;;;;2.95;2.10;;;;;;;16.03;31.93;93421.84;4922208;28;20034;-89
2022/03/06 07:45:29;;;;;;;2.90;1.92;;;;;;;16.00;32.08;93428.31;4919662;29;20043;-88
2022/03/06 07:47:54;;;;;;;3.30;2.30;;;;;;;16.03;32.03;93432.00;4920379;29;20266;-89
2022/03/06 07:50:20;;;;;;;3.30;2.13;;;;;;;16.01;31.81;93429.06;4921696;28;20557;-89
2022/03/06 07:52:46;;;;;;;3.03;2.22;;;;;;;16.07;31.91;93429.78;4954303;28;20043;-89
2022/03/06 07:55:12;;;;;;;3.45;2.25;;;;;;;16.05;32.06;93437.72;4921543;28;20121;-90
2022/03/06 07:57:38;;;;;;;2.55;1.95;;;;;;;16.03;32.07;93432.00;4948002;28;20110;-90
2022/03/06 08:00:04;;;;;;;68.70;53.13;;;;;;;16.03;31.99;93434.75;4915018;28;20047;-87
2022/03/06 08:02:30;;;;;;;204.68;139.55;;;;;;;16.05;32.15;93438.47;4928266;28;20053;-93
2022/03/06 08:04:57;;;;;;;18.80;13.10;;;;;;;16.07;31.85;93440.69;4928941;28;20043;-95
2022/03/06 08:07:22;;;;;;;11.43;8.10;;;;;;;16.09;32.22;93430.78;4921363;29;20050;-90
2022/03/06 08:09:48;;;;;;;10.45;7.00;;;;;;;16.06;32.09;93434.50;4936218;28;20410;-89
2022/03/06 08:12:13;;;;;;;6.45;5.15;;;;;;;16.10;31.65;93442.44;4933697;29;20051;-89
2022/03/06 08:14:39;;;;;;;7.80;5.55;;;;;;;16.06;32.28;93439.94;4917872;29;20033;-88
2022/03/06 08:17:04;;;;;;;9.45;6.63;;;;;;;16.13;31.90;93427.81;4918745;28;20047;-88
2022/03/06 08:19:29;;;;;;;6.88;5.03;;;;;;;16.13;31.93;93438.72;4916740;29;20365;-87
2022/03/06 08:21:55;;;;;;;6.10;4.28;;;;;;;16.11;31.99;93441.94;4918239;29;20039;-89
2022/03/06 08:24:20;;;;;;;7.97;5.70;;;;;;;16.17;31.86;93447.41;4918957;28;20039;-88
2022/03/06 08:26:46;;;;;;;9.07;6.53;;;;;;;16.18;31.88;93439.97;4937218;28;20035;-89
2022/03/06 08:29:11;;;;;;;7.70;6.10;;;;;;;16.15;31.96;93440.97;4934629;28;20039;-90
2022/03/06 08:31:36;;;;;;;7.18;5.20;;;;;;;16.20;31.94;93451.13;4901979;29;20035;-93
2022/03/06 08:34:02;;;;;;;7.68;5.55;;;;;;;16.21;32.04;93450.66;4917905;29;20047;-88
2022/03/06 08:36:27;;;;;;;8.05;5.45;;;;;;;16.20;31.98;93443.69;4917329;29;20049;-89
2022/03/06 08:38:53;;;;;;;5.97;4.68;;;;;;;16.15;31.73;93441.72;4918071;29;20043;-89
2022/03/06 08:41:18;;;;;;;6.68;4.57;;;;;;;16.22;31.73;93448.66;4903636;28;20035;-91
2022/03/06 08:43:44;;;;;;;5.57;4.25;;;;;;;16.22;31.88;93446.69;4920986;28;20035;-89
2022/03/06 08:46:09;;;;;;;5.50;4.32;;;;;;;16.23;31.79;93447.41;4917396;29;20491;-92
2022/03/06 08:48:37;;;;;;;8.38;4.55;;;;;;;16.26;32.08;93451.88;4926751;29;20039;-89
2022/03/06 08:51:04;;;;;;;6.20;4.15;;;;;;;16.22;31.77;93445.94;4917050;29;20191;-90
2022/03/06 08:53:30;;;;;;;4.82;3.70;;;;;;;16.22;31.97;93443.22;4902136;29;20031;-89
2022/03/06 08:55:55;;;;;;;5.93;4.22;;;;;;;16.23;31.92;93437.25;4901677;29;20054;-89
2022/03/06 08:58:21;;;;;;;5.53;4.05;;;;;;;16.27;31.81;93440.47;4917121;29;20035;-89
2022/03/06 09:00:46;;;;;;;5.40;4.00;;;;;;;16.23;31.89;93442.72;4932120;28;20030;-90
2022/03/06 09:03:11;;;;;;;6.00;3.75;;;;;;;16.22;31.98;93437.75;4919911;28;20031;-89
2022/03/06 09:05:40;;;;;;;6.40;4.38;;;;;;;16.29;31.79;93445.41;4935818;28;20035;-89
2022/03/06 09:08:07;;;;;;;4.53;3.38;;;;;;;16.29;31.77;93442.69;4936613;28;20533;-90
2022/03/06 09:10:33;;;;;;;5.20;3.42;;;;;;;16.25;31.61;93442.94;4937019;28;20122;-90
2022/03/06 09:13:00;;;;;;;5.60;4.03;;;;;;;16.24;32.10;93443.47;4940737;28;20046;-90
2022/03/06 09:15:26;;;;;;;5.38;4.07;;;;;;;16.29;32.22;93442.69;4924531;28;20037;-89
2022/03/06 09:17:51;;;;;;;4.78;3.80;;;;;;;16.26;31.67;93449.88;4956657;28;20061;-89
2022/03/06 09:20:16;;;;;;;5.03;3.63;;;;;;;16.26;31.67;93440.94;4939588;28;20045;-91
2022/03/06 09:22:42;;;;;;;4.80;3.58;;;;;;;16.28;31.88;93449.38;4923650;28;20038;-90
2022/03/06 09:25:07;;;;;;;4.38;3.40;;;;;;;16.25;31.62;93448.38;4936539;29;20047;-89
2022/03/06 09:27:34;;;;;;;4.78;3.70;;;;;;;16.27;31.80;93434.25;4921483;29;20058;-90
2022/03/06 09:30:02;;;;;;;5.28;3.78;;;;;;;16.29;31.96;93432.53;4921267;29;20055;-91
2022/03/06 09:32:27;;;;;;;4.63;3.47;;;;;;;16.29;31.55;93429.81;4921565;29;20130;-90
2022/03/06 09:34:53;;;;;;;5.05;3.70;;;;;;;16.27;31.63;93435.00;4920928;29;20494;-90
2022/03/06 09:37:18;;;;;;;5.85;4.10;;;;;;;16.28;31.99;93424.84;4936827;29;20040;-92
2022/03/06 09:39:44;;;;;;;5.80;3.95;;;;;;;16.29;31.92;93423.59;4936990;29;20032;-89
2022/03/06 09:42:09;;;;;;;4.40;3.45;;;;;;;16.32;31.75;93425.34;4945489;28;20086;-91
2022/03/06 09:44:36;;;;;;;4.03;3.10;;;;;;;16.29;31.77;93429.81;4940311;28;20089;-89
2022/03/06 09:47:01;;;;;;;3.95;3.15;;;;;;;16.30;32.02;93419.63;4924357;28;20046;-89
2022/03/06 09:49:28;;;;;;;4.93;3.28;;;;;;;16.31;31.49;93424.59;4923819;28;20038;-90
2022/03/06 09:51:54;;;;;;;5.03;3.17;;;;;;;16.30;31.85;93427.81;4936528;28;20047;-89
2022/03/06 09:54:20;;;;;;;4.45;3.40;;;;;;;16.29;32.02;93423.59;4923969;28;20421;-89
2022/03/06 09:56:45;;;;;;;4.32;3.13;;;;;;;16.28;31.73;93422.84;4923442;28;20039;-89
2022/03/06 09:59:10;;;;;;;4.53;3.63;;;;;;;16.27;31.79;93424.09;4923198;28;20047;-90
2022/03/06 10:01:36;;;;;;;3.53;2.70;;;;;;;16.29;31.67;93423.59;4923669;28;20038;-90
2022/03/06 10:04:20;;;;;;;4.50;3.35;;;;;;;16.25;31.88;93423.84;4939594;28;20062;-90
2022/03/06 10:07:04;;;;;;;4.80;3.17;;;;;;;16.24;31.75;93427.81;4954613;28;20039;-89
2022/03/06 10:09:49;;;;;;;4.10;3.05;;;;;;;16.25;32.08;93425.81;4955156;28;20046;-89
2022/03/06 10:12:19;;;;;;;4.50;3.50;;;;;;;16.23;31.94;93434.53;4939751;28;20553;-90
2022/03/06 10:14:45;;;;;;;5.78;3.60;;;;;;;16.26;31.65;93427.31;4939715;28;20454;-90
2022/03/06 10:17:13;;;;;;;4.20;3.10;;;;;;;16.24;31.64;93430.53;4938115;28;20062;-90
2022/03/06 10:19:58;;;;;;;3.67;3.03;;;;;;;16.27;31.64;93417.91;4921697;29;20031;-89
2022/03/06 10:22:30;;;;;;;2.97;2.50;;;;;;;16.25;32.22;93429.28;4934078;29;20253;-90
2022/03/06 10:24:59;;;;;;;3.17;2.60;;;;;;;16.26;31.81;93421.84;4935058;29;20333;-90
2022/03/06 10:27:59;;;;;;;4.32;2.70;;;;;;;16.23;31.83;93418.16;4919745;29;20071;-89
2022/03/06 10:30:38;;;;;;;3.00;2.67;;;;;;;16.25;31.55;93409.47;4920331;29;20046;-90
2022/03/06 10:33:10;;;;;;;4.03;3.05;;;;;;;16.30;32.08;93411.44;4904176;29;20122;-90
2022/03/06 10:35:40;;;;;;;5.72;2.42;;;;;;;16.29;31.95;93416.16;4904828;29;20046;-89
2022/03/06 10:38:17;;;;;;;4.85;3.28;;;;;;;16.28;32.01;93411.94;4903885;29;20086;-89
2022/03/06 10:40:43;;;;;;;4.78;3.08;;;;;;;16.28;31.50;93406.50;4935001;29;20447;-89
2022/03/06 10:43:20;;;;;;;4.45;2.67;;;;;;;16.27;31.71;93410.47;4917241;29;20047;-91
2022/03/06 10:45:46;;;;;;;3.83;2.85;;;;;;;16.27;32.10;93406.97;4939284;28;20042;-90
2022/03/06 10:48:12;;;;;;;3.97;2.78;;;;;;;16.26;31.84;93400.78;4938091;28;20033;-90
2022/03/06 10:50:37;;;;;;;3.08;2.72;;;;;;;16.24;31.83;93414.16;4923184;28;20030;-89
2022/03/06 10:53:19;;;;;;;4.65;2.92;;;;;;;16.25;32.17;93412.94;4921881;28;20038;-90
2022/03/06 10:55:45;;;;;;;4.50;3.17;;;;;;;16.30;31.56;93411.44;4923051;28;20049;-90
2022/03/06 10:58:10;;;;;;;4.68;3.10;;;;;;;16.26;31.67;93408.97;4937525;28;20074;-89
2022/03/06 11:00:35;;;;;;;4.22;2.90;;;;;;;16.30;31.67;93400.53;4922649;28;20050;-90
2022/03/06 11:03:03;;;;;;;4.40;3.08;;;;;;;16.26;32.03;93408.97;4922726;28;20073;-90
2022/03/06 11:05:30;;;;;;;3.50;2.90;;;;;;;16.27;31.80;93406.97;4922682;28;20031;-91
2022/03/06 11:07:56;;;;;;;4.30;2.80;;;;;;;16.28;32.04;93413.94;4938129;28;20039;-89
2022/03/06 11:10:22;;;;;;;3.72;2.95;;;;;;;16.31;31.59;93399.28;4921530;28;20035;-90
2022/03/06 11:12:47;;;;;;;4.28;2.70;;;;;;;16.27;31.69;93406.97;4922631;28;20371;-89
2022/03/06 11:15:12;;;;;;;3.30;2.72;;;;;;;16.27;32.03;93409.72;4918394;29;20054;-89
2022/03/06 11:17:38;;;;;;;3.42;2.40;;;;;;;16.31;31.71;93405.50;4902827;29;20028;-90
2022/03/06 11:20:04;;;;;;;4.32;2.63;;;;;;;16.30;32.13;93403.25;4918148;29;20114;-89
2022/03/06 11:22:52;;;;;;;3.42;2.78;;;;;;;16.26;31.72;93402.75;4934213;29;20047;-89
2022/03/06 11:25:22;;;;;;;2.95;2.28;;;;;;;16.26;31.91;93400.03;4918486;29;20043;-90
2022/03/06 11:28:06;;;;;;;2.97;2.50;;;;;;;16.25;32.00;93404.00;4919661;29;20032;-89
2022/03/06 11:30:31;;;;;;;3.10;2.47;;;;;;;16.25;32.04;93404.75;4934545;29;20379;-89